McCabe, Montana
Current Conditions -  °F | °C
As of 12:52 PM on Friday 21 Nov 2014 (Local Time) from KISN Reporting Station
Clear Clear  
Wind Chill: 37°   Ceiling: Unl
Heat Index: 45°   Visibility: 10mi
Dew Point: 29°   Wind: 22mph
Humidity: 53%   Direction: 260°W
Pressure: 29.63"   Gusts: 32mph
Location:  48.24°N, 104.38°W
Report Text: KISN 211952Z AUTO 26019G28KT 10SM CLR 07/M02 A2963 RMK AO2 PK WND 27029/1920 SLP055 T00721017
Loading
Personal Weather Stations






























Interactive Weather Map New forecast layout! Learn more

10-Day Weather Forecast

Advertisements
Track Severe Weather on mobile